sensor_id;sensor_type;location;lat;lon;timestamp;temperature;humidity
46676;DHT22;32412;51.478;5.694;2023-06-22T00:00:51;18.70;99.90
46676;DHT22;32412;51.478;5.694;2023-06-22T00:03:21;18.80;99.90
46676;DHT22;32412;51.478;5.694;2023-06-22T00:05:48;18.80;99.90
46676;DHT22;32412;51.478;5.694;2023-06-22T00:08:14;18.90;99.90
46676;DHT22;32412;51.478;5.694;2023-06-22T00:10:40;18.90;99.90
46676;DHT22;32412;51.478;5.694;2023-06-22T00:13:07;18.90;99.90
46676;DHT22;32412;51.478;5.694;2023-06-22T00:15:33;18.90;99.90
46676;DHT22;32412;51.478;5.694;2023-06-22T00:17:59;18.90;99.90
46676;DHT22;32412;51.478;5.694;2023-06-22T00:20:29;18.90;99.90
46676;DHT22;32412;51.478;5.694;2023-06-22T00:22:56;18.90;99.90
46676;DHT22;32412;51.478;5.694;2023-06-22T00:25:22;18.80;99.90
46676;DHT22;32412;51.478;5.694;2023-06-22T00:27:48;18.80;99.90
46676;DHT22;32412;51.478;5.694;2023-06-22T00:30:15;18.80;99.90
46676;DHT22;32412;51.478;5.694;2023-06-22T00:32:41;18.80;99.90
46676;DHT22;32412;51.478;5.694;2023-06-22T00:35:07;18.80;99.90
46676;DHT22;32412;51.478;5.694;2023-06-22T00:37:34;18.80;99.90
46676;DHT22;32412;51.478;5.694;2023-06-22T00:40:01;18.80;99.90
46676;DHT22;32412;51.478;5.694;2023-06-22T00:42:27;18.80;99.90
46676;DHT22;32412;51.478;5.694;2023-06-22T00:44:53;18.80;99.90
46676;DHT22;32412;51.478;5.694;2023-06-22T00:47:18;18.80;99.90
46676;DHT22;32412;51.478;5.694;2023-06-22T00:49:45;18.80;99.90
46676;DHT22;32412;51.478;5.694;2023-06-22T00:52:12;18.70;99.90
46676;DHT22;32412;51.478;5.694;2023-06-22T00:54:47;18.70;99.90
46676;DHT22;32412;51.478;5.694;2023-06-22T00:57:14;18.60;99.90
46676;DHT22;32412;51.478;5.694;2023-06-22T00:59:45;18.60;99.90
46676;DHT22;32412;51.478;5.694;2023-06-22T01:02:11;18.60;99.90
46676;DHT22;32412;51.478;5.694;2023-06-22T01:04:38;18.60;99.90
46676;DHT22;32412;51.478;5.694;2023-06-22T01:07:10;18.60;99.90
46676;DHT22;32412;51.478;5.694;2023-06-22T01:12:17;18.50;99.90
46676;DHT22;32412;51.478;5.694;2023-06-22T01:14:49;18.50;99.90
46676;DHT22;32412;51.478;5.694;2023-06-22T01:17:19;18.50;99.90
46676;DHT22;32412;51.478;5.694;2023-06-22T01:19:45;18.50;99.90
46676;DHT22;32412;51.478;5.694;2023-06-22T01:22:24;18.50;99.90
46676;DHT22;32412;51.478;5.694;2023-06-22T01:28:03;18.50;99.90
46676;DHT22;32412;51.478;5.694;2023-06-22T01:30:31;18.50;99.90
46676;DHT22;32412;51.478;5.694;2023-06-22T01:33:00;18.50;99.90
46676;DHT22;32412;51.478;5.694;2023-06-22T01:35:27;18.50;99.90
46676;DHT22;32412;51.478;5.694;2023-06-22T01:37:54;18.50;99.90
46676;DHT22;32412;51.478;5.694;2023-06-22T01:40:21;18.50;99.90
46676;DHT22;32412;51.478;5.694;2023-06-22T01:42:47;18.50;99.90
46676;DHT22;32412;51.478;5.694;2023-06-22T01:45:13;18.50;99.90
46676;DHT22;32412;51.478;5.694;2023-06-22T01:47:40;18.50;99.90
46676;DHT22;32412;51.478;5.694;2023-06-22T01:50:06;18.50;99.90
46676;DHT22;32412;51.478;5.694;2023-06-22T01:52:32;18.50;99.90
46676;DHT22;32412;51.478;5.694;2023-06-22T01:55:00;18.50;99.90
46676;DHT22;32412;51.478;5.694;2023-06-22T01:57:26;18.50;99.90
46676;DHT22;32412;51.478;5.694;2023-06-22T02:00:10;18.50;99.90
46676;DHT22;32412;51.478;5.694;2023-06-22T02:02:49;18.50;99.90
46676;DHT22;32412;51.478;5.694;2023-06-22T02:05:18;18.50;99.90
46676;DHT22;32412;51.478;5.694;2023-06-22T02:07:47;18.40;99.90
46676;DHT22;32412;51.478;5.694;2023-06-22T02:10:16;18.40;99.90
46676;DHT22;32412;51.478;5.694;2023-06-22T02:12:45;18.40;99.90
46676;DHT22;32412;51.478;5.694;2023-06-22T02:15:12;18.40;99.90
46676;DHT22;32412;51.478;5.694;2023-06-22T02:17:38;18.40;99.90
46676;DHT22;32412;51.478;5.694;2023-06-22T02:20:04;18.30;99.90
46676;DHT22;32412;51.478;5.694;2023-06-22T02:22:34;18.30;99.90
46676;DHT22;32412;51.478;5.694;2023-06-22T02:25:00;18.30;99.90
46676;DHT22;32412;51.478;5.694;2023-06-22T02:27:25;18.30;99.90
46676;DHT22;32412;51.478;5.694;2023-06-22T02:29:51;18.30;99.90
46676;DHT22;32412;51.478;5.694;2023-06-22T02:32:17;18.30;99.90
46676;DHT22;32412;51.478;5.694;2023-06-22T02:34:43;18.20;99.90
46676;DHT22;32412;51.478;5.694;2023-06-22T02:37:16;18.20;99.90
46676;DHT22;32412;51.478;5.694;2023-06-22T02:39:42;18.20;99.90
46676;DHT22;32412;51.478;5.694;2023-06-22T02:42:07;18.30;99.90
46676;DHT22;32412;51.478;5.694;2023-06-22T02:44:33;18.20;99.90
46676;DHT22;32412;51.478;5.694;2023-06-22T02:46:59;18.20;99.90
46676;DHT22;32412;51.478;5.694;2023-06-22T02:49:24;18.20;99.90
46676;DHT22;32412;51.478;5.694;2023-06-22T02:51:50;18.20;99.90
46676;DHT22;32412;51.478;5.694;2023-06-22T02:54:16;18.20;99.90
46676;DHT22;32412;51.478;5.694;2023-06-22T02:56:42;18.10;99.90
46676;DHT22;32412;51.478;5.694;2023-06-22T02:59:10;18.10;99.90
46676;DHT22;32412;51.478;5.694;2023-06-22T03:01:36;18.10;99.90
46676;DHT22;32412;51.478;5.694;2023-06-22T03:04:11;18.10;99.90
46676;DHT22;32412;51.478;5.694;2023-06-22T03:06:42;18.10;99.90
46676;DHT22;32412;51.478;5.694;2023-06-22T03:09:07;18.10;99.90
46676;DHT22;32412;51.478;5.694;2023-06-22T03:11:34;18.00;99.90
46676;DHT22;32412;51.478;5.694;2023-06-22T03:14:00;18.00;99.90
46676;DHT22;32412;51.478;5.694;2023-06-22T03:16:26;18.00;99.90
46676;DHT22;32412;51.478;5.694;2023-06-22T03:18:52;18.00;99.90
46676;DHT22;32412;51.478;5.694;2023-06-22T03:21:22;18.00;99.90
46676;DHT22;32412;51.478;5.694;2023-06-22T03:23:48;18.00;99.90
46676;DHT22;32412;51.478;5.694;2023-06-22T03:26:17;18.10;99.90
46676;DHT22;32412;51.478;5.694;2023-06-22T03:28:43;18.10;99.90
46676;DHT22;32412;51.478;5.694;2023-06-22T03:31:08;18.10;99.90
46676;DHT22;32412;51.478;5.694;2023-06-22T03:33:34;18.10;99.90
46676;DHT22;32412;51.478;5.694;2023-06-22T03:36:00;18.10;99.90
46676;DHT22;32412;51.478;5.694;2023-06-22T03:38:26;18.00;99.90
46676;DHT22;32412;51.478;5.694;2023-06-22T03:40:51;18.00;99.90
46676;DHT22;32412;51.478;5.694;2023-06-22T03:43:17;18.00;99.90
46676;DHT22;32412;51.478;5.694;2023-06-22T03:45:43;18.00;99.90
46676;DHT22;32412;51.478;5.694;2023-06-22T03:48:11;17.90;99.90
46676;DHT22;32412;51.478;5.694;2023-06-22T03:50:36;17.90;99.90
46676;DHT22;32412;51.478;5.694;2023-06-22T03:53:02;17.90;99.90
46676;DHT22;32412;51.478;5.694;2023-06-22T03:55:28;17.90;99.90
46676;DHT22;32412;51.478;5.694;2023-06-22T03:57:54;18.00;99.90
46676;DHT22;32412;51.478;5.694;2023-06-22T04:00:24;18.00;99.90
46676;DHT22;32412;51.478;5.694;2023-06-22T04:02:50;18.00;99.90
46676;DHT22;32412;51.478;5.694;2023-06-22T04:05:16;18.00;99.90
46676;DHT22;32412;51.478;5.694;2023-06-22T04:07:43;18.00;99.90
46676;DHT22;32412;51.478;5.694;2023-06-22T04:10:09;18.10;99.90
46676;DHT22;32412;51.478;5.694;2023-06-22T04:12:35;18.10;99.90
46676;DHT22;32412;51.478;5.694;2023-06-22T04:15:01;18.10;99.90
46676;DHT22;32412;51.478;5.694;2023-06-22T04:17:27;18.10;99.90
46676;DHT22;32412;51.478;5.694;2023-06-22T04:19:53;18.10;99.90
46676;DHT22;32412;51.478;5.694;2023-06-22T04:22:18;18.20;99.90
46676;DHT22;32412;51.478;5.694;2023-06-22T04:24:45;18.20;99.90
46676;DHT22;32412;51.478;5.694;2023-06-22T04:27:10;18.20;99.90
46676;DHT22;32412;51.478;5.694;2023-06-22T04:29:37;18.30;99.90
46676;DHT22;32412;51.478;5.694;2023-06-22T04:32:03;18.40;99.90
46676;DHT22;32412;51.478;5.694;2023-06-22T04:34:30;18.40;99.90
46676;DHT22;32412;51.478;5.694;2023-06-22T04:36:56;18.40;99.90
46676;DHT22;32412;51.478;5.694;2023-06-22T04:39:22;18.40;99.90
46676;DHT22;32412;51.478;5.694;2023-06-22T04:41:49;18.50;99.90
46676;DHT22;32412;51.478;5.694;2023-06-22T04:44:17;18.60;99.90
46676;DHT22;32412;51.478;5.694;2023-06-22T04:46:54;18.60;99.90
46676;DHT22;32412;51.478;5.694;2023-06-22T04:49:26;18.70;99.90
46676;DHT22;32412;51.478;5.694;2023-06-22T04:52:01;18.80;99.90
46676;DHT22;32412;51.478;5.694;2023-06-22T04:54:27;18.80;99.90
46676;DHT22;32412;51.478;5.694;2023-06-22T04:56:53;18.90;99.90
46676;DHT22;32412;51.478;5.694;2023-06-22T04:59:29;18.90;99.90
46676;DHT22;32412;51.478;5.694;2023-06-22T05:01:59;18.90;99.90
46676;DHT22;32412;51.478;5.694;2023-06-22T05:04:26;18.90;99.90
46676;DHT22;32412;51.478;5.694;2023-06-22T05:06:54;19.00;99.90
46676;DHT22;32412;51.478;5.694;2023-06-22T05:09:20;19.10;99.90
46676;DHT22;32412;51.478;5.694;2023-06-22T05:11:46;19.20;99.90
46676;DHT22;32412;51.478;5.694;2023-06-22T05:14:12;19.30;99.90
46676;DHT22;32412;51.478;5.694;2023-06-22T05:16:38;19.30;99.90
46676;DHT22;32412;51.478;5.694;2023-06-22T05:19:05;19.30;99.90
46676;DHT22;32412;51.478;5.694;2023-06-22T05:21:31;19.40;99.90
46676;DHT22;32412;51.478;5.694;2023-06-22T05:23:57;19.50;99.90
46676;DHT22;32412;51.478;5.694;2023-06-22T05:26:26;19.60;99.90
46676;DHT22;32412;51.478;5.694;2023-06-22T05:28:52;19.50;99.90
46676;DHT22;32412;51.478;5.694;2023-06-22T05:31:19;19.60;99.90
46676;DHT22;32412;51.478;5.694;2023-06-22T05:33:45;19.60;99.90
46676;DHT22;32412;51.478;5.694;2023-06-22T05:36:11;19.70;99.90
46676;DHT22;32412;51.478;5.694;2023-06-22T05:38:38;19.80;99.90
46676;DHT22;32412;51.478;5.694;2023-06-22T05:41:04;19.80;99.90
46676;DHT22;32412;51.478;5.694;2023-06-22T05:43:30;19.80;99.90
46676;DHT22;32412;51.478;5.694;2023-06-22T05:45:57;19.80;99.90
46676;DHT22;32412;51.478;5.694;2023-06-22T05:48:23;19.90;99.90
46676;DHT22;32412;51.478;5.694;2023-06-22T05:50:49;20.00;99.90
46676;DHT22;32412;51.478;5.694;2023-06-22T05:53:15;20.00;99.90
46676;DHT22;32412;51.478;5.694;2023-06-22T05:55:41;19.90;99.90
46676;DHT22;32412;51.478;5.694;2023-06-22T05:58:08;20.00;99.90
46676;DHT22;32412;51.478;5.694;2023-06-22T06:00:34;20.00;99.90
46676;DHT22;32412;51.478;5.694;2023-06-22T06:03:00;20.00;99.90
46676;DHT22;32412;51.478;5.694;2023-06-22T06:05:32;20.00;99.90
46676;DHT22;32412;51.478;5.694;2023-06-22T06:07:59;20.10;99.90
46676;DHT22;32412;51.478;5.694;2023-06-22T06:10:25;20.10;99.90
46676;DHT22;32412;51.478;5.694;2023-06-22T06:12:52;20.10;99.90
46676;DHT22;32412;51.478;5.694;2023-06-22T06:15:17;20.20;99.90
46676;DHT22;32412;51.478;5.694;2023-06-22T06:17:53;20.30;99.90
46676;DHT22;32412;51.478;5.694;2023-06-22T06:20:21;20.50;99.90
46676;DHT22;32412;51.478;5.694;2023-06-22T06:22:48;20.50;99.90
46676;DHT22;32412;51.478;5.694;2023-06-22T06:25:13;20.60;99.90
46676;DHT22;32412;51.478;5.694;2023-06-22T06:27:51;20.60;99.90
46676;DHT22;32412;51.478;5.694;2023-06-22T06:30:20;20.60;99.90
46676;DHT22;32412;51.478;5.694;2023-06-22T06:32:46;20.60;99.90
46676;DHT22;32412;51.478;5.694;2023-06-22T06:35:13;20.70;99.90
46676;DHT22;32412;51.478;5.694;2023-06-22T06:37:41;20.80;99.90
46676;DHT22;32412;51.478;5.694;2023-06-22T06:40:07;20.80;99.90
46676;DHT22;32412;51.478;5.694;2023-06-22T06:42:36;20.80;99.90
46676;DHT22;32412;51.478;5.694;2023-06-22T06:45:07;20.80;99.90
46676;DHT22;32412;51.478;5.694;2023-06-22T06:47:33;20.90;99.90
46676;DHT22;32412;51.478;5.694;2023-06-22T06:49:59;20.90;99.90
46676;DHT22;32412;51.478;5.694;2023-06-22T06:52:25;20.90;99.90
46676;DHT22;32412;51.478;5.694;2023-06-22T06:54:51;20.90;99.90
46676;DHT22;32412;51.478;5.694;2023-06-22T06:57:18;20.90;99.90
46676;DHT22;32412;51.478;5.694;2023-06-22T06:59:44;21.00;99.90
46676;DHT22;32412;51.478;5.694;2023-06-22T07:02:09;20.90;99.90
46676;DHT22;32412;51.478;5.694;2023-06-22T07:04:35;20.90;99.90
46676;DHT22;32412;51.478;5.694;2023-06-22T07:07:02;20.90;99.90
46676;DHT22;32412;51.478;5.694;2023-06-22T07:09:27;21.00;99.90
46676;DHT22;32412;51.478;5.694;2023-06-22T07:11:53;21.10;99.90
46676;DHT22;32412;51.478;5.694;2023-06-22T07:14:19;21.20;99.90
46676;DHT22;32412;51.478;5.694;2023-06-22T07:16:45;21.40;99.90
46676;DHT22;32412;51.478;5.694;2023-06-22T07:19:13;21.50;99.90
46676;DHT22;32412;51.478;5.694;2023-06-22T07:21:39;21.70;99.90
46676;DHT22;32412;51.478;5.694;2023-06-22T07:24:06;21.70;99.90
46676;DHT22;32412;51.478;5.694;2023-06-22T07:26:32;21.80;99.90
46676;DHT22;32412;51.478;5.694;2023-06-22T07:28:58;21.70;99.90
46676;DHT22;32412;51.478;5.694;2023-06-22T07:31:25;21.70;99.90
46676;DHT22;32412;51.478;5.694;2023-06-22T07:33:51;21.70;99.90
46676;DHT22;32412;51.478;5.694;2023-06-22T07:36:18;21.80;99.90
46676;DHT22;32412;51.478;5.694;2023-06-22T07:38:43;21.90;99.90
46676;DHT22;32412;51.478;5.694;2023-06-22T07:41:09;21.80;99.90
46676;DHT22;32412;51.478;5.694;2023-06-22T07:43:35;21.80;99.90
46676;DHT22;32412;51.478;5.694;2023-06-22T07:46:03;21.70;99.90
46676;DHT22;32412;51.478;5.694;2023-06-22T07:48:29;21.80;99.90
46676;DHT22;32412;51.478;5.694;2023-06-22T07:50:55;21.80;99.90
46676;DHT22;32412;51.478;5.694;2023-06-22T07:53:21;21.90;99.90
46676;DHT22;32412;51.478;5.694;2023-06-22T07:55:48;22.00;99.90
46676;DHT22;32412;51.478;5.694;2023-06-22T07:58:14;22.10;99.90
46676;DHT22;32412;51.478;5.694;2023-06-22T08:00:41;22.10;99.90
46676;DHT22;32412;51.478;5.694;2023-06-22T08:03:06;22.20;99.90
46676;DHT22;32412;51.478;5.694;2023-06-22T08:05:32;22.10;99.90
46676;DHT22;32412;51.478;5.694;2023-06-22T08:07:58;22.00;99.90
46676;DHT22;32412;51.478;5.694;2023-06-22T08:10:24;22.00;99.90
46676;DHT22;32412;51.478;5.694;2023-06-22T08:12:51;22.00;99.90
46676;DHT22;32412;51.478;5.694;2023-06-22T08:15:18;21.90;99.90
46676;DHT22;32412;51.478;5.694;2023-06-22T08:17:44;22.10;99.90
46676;DHT22;32412;51.478;5.694;2023-06-22T08:20:11;22.20;99.90
46676;DHT22;32412;51.478;5.694;2023-06-22T08:22:38;22.30;99.90
46676;DHT22;32412;51.478;5.694;2023-06-22T08:25:04;22.30;99.90
46676;DHT22;32412;51.478;5.694;2023-06-22T08:27:31;22.30;99.90
46676;DHT22;32412;51.478;5.694;2023-06-22T08:29:58;22.40;99.90
46676;DHT22;32412;51.478;5.694;2023-06-22T08:32:25;22.50;99.90
46676;DHT22;32412;51.478;5.694;2023-06-22T08:34:53;22.60;99.90
46676;DHT22;32412;51.478;5.694;2023-06-22T08:37:19;22.60;99.90
46676;DHT22;32412;51.478;5.694;2023-06-22T08:39:45;22.70;99.90
46676;DHT22;32412;51.478;5.694;2023-06-22T08:42:10;22.60;99.90
46676;DHT22;32412;51.478;5.694;2023-06-22T08:44:37;22.70;99.90
46676;DHT22;32412;51.478;5.694;2023-06-22T08:47:02;22.80;99.90
46676;DHT22;32412;51.478;5.694;2023-06-22T08:49:29;22.80;99.90
46676;DHT22;32412;51.478;5.694;2023-06-22T08:51:54;22.70;99.90
46676;DHT22;32412;51.478;5.694;2023-06-22T08:54:22;22.70;99.90
46676;DHT22;32412;51.478;5.694;2023-06-22T08:56:48;22.80;99.90
46676;DHT22;32412;51.478;5.694;2023-06-22T08:59:14;22.90;99.90
46676;DHT22;32412;51.478;5.694;2023-06-22T09:01:39;22.90;99.90
46676;DHT22;32412;51.478;5.694;2023-06-22T09:04:05;22.80;99.90
46676;DHT22;32412;51.478;5.694;2023-06-22T09:06:32;22.80;99.90
46676;DHT22;32412;51.478;5.694;2023-06-22T09:08:58;22.80;99.90
46676;DHT22;32412;51.478;5.694;2023-06-22T09:11:26;22.90;99.90
46676;DHT22;32412;51.478;5.694;2023-06-22T09:13:52;22.90;99.90
46676;DHT22;32412;51.478;5.694;2023-06-22T09:16:19;22.90;99.90
46676;DHT22;32412;51.478;5.694;2023-06-22T09:18:48;22.90;99.90
46676;DHT22;32412;51.478;5.694;2023-06-22T09:21:14;22.90;99.90
46676;DHT22;32412;51.478;5.694;2023-06-22T09:23:39;22.90;99.90
46676;DHT22;32412;51.478;5.694;2023-06-22T09:26:05;22.90;99.90
46676;DHT22;32412;51.478;5.694;2023-06-22T09:28:31;23.00;99.90
46676;DHT22;32412;51.478;5.694;2023-06-22T09:30:56;23.00;99.90
46676;DHT22;32412;51.478;5.694;2023-06-22T09:33:25;22.90;99.90
46676;DHT22;32412;51.478;5.694;2023-06-22T09:35:51;23.00;99.90
46676;DHT22;32412;51.478;5.694;2023-06-22T09:38:16;23.00;99.90
46676;DHT22;32412;51.478;5.694;2023-06-22T09:40:42;23.00;99.90
46676;DHT22;32412;51.478;5.694;2023-06-22T09:43:08;23.10;99.90
46676;DHT22;32412;51.478;5.694;2023-06-22T09:45:34;23.20;99.90
46676;DHT22;32412;51.478;5.694;2023-06-22T09:48:00;23.10;99.90
46676;DHT22;32412;51.478;5.694;2023-06-22T09:50:25;23.30;99.90
46676;DHT22;32412;51.478;5.694;2023-06-22T09:52:51;23.40;99.90
46676;DHT22;32412;51.478;5.694;2023-06-22T09:55:21;23.50;99.90
46676;DHT22;32412;51.478;5.694;2023-06-22T09:57:46;23.60;99.90
46676;DHT22;32412;51.478;5.694;2023-06-22T10:00:13;23.60;99.90
46676;DHT22;32412;51.478;5.694;2023-06-22T10:02:41;23.60;99.90
46676;DHT22;32412;51.478;5.694;2023-06-22T10:05:07;23.60;99.90
46676;DHT22;32412;51.478;5.694;2023-06-22T10:07:33;23.70;99.90
46676;DHT22;32412;51.478;5.694;2023-06-22T10:09:59;23.70;99.90
46676;DHT22;32412;51.478;5.694;2023-06-22T10:12:26;23.70;99.90
46676;DHT22;32412;51.478;5.694;2023-06-22T10:14:53;23.70;99.90
46676;DHT22;32412;51.478;5.694;2023-06-22T10:17:18;23.80;99.90
46676;DHT22;32412;51.478;5.694;2023-06-22T10:19:44;23.90;99.90
46676;DHT22;32412;51.478;5.694;2023-06-22T10:22:09;23.90;99.90
46676;DHT22;32412;51.478;5.694;2023-06-22T10:24:35;24.10;99.90
46676;DHT22;32412;51.478;5.694;2023-06-22T10:27:01;24.00;99.90
46676;DHT22;32412;51.478;5.694;2023-06-22T10:29:26;23.90;99.90
46676;DHT22;32412;51.478;5.694;2023-06-22T10:31:52;23.70;99.90
46676;DHT22;32412;51.478;5.694;2023-06-22T10:34:18;23.60;99.90
46676;DHT22;32412;51.478;5.694;2023-06-22T10:36:43;23.50;99.90
46676;DHT22;32412;51.478;5.694;2023-06-22T10:39:11;23.30;99.90
46676;DHT22;32412;51.478;5.694;2023-06-22T10:41:37;23.20;99.90
46676;DHT22;32412;51.478;5.694;2023-06-22T10:44:03;23.20;99.90
46676;DHT22;32412;51.478;5.694;2023-06-22T10:46:28;22.90;99.90
46676;DHT22;32412;51.478;5.694;2023-06-22T10:48:54;22.30;99.90
46676;DHT22;32412;51.478;5.694;2023-06-22T10:51:20;21.80;99.90
46676;DHT22;32412;51.478;5.694;2023-06-22T10:53:48;21.40;99.90
46676;DHT22;32412;51.478;5.694;2023-06-22T10:56:14;21.20;99.90
46676;DHT22;32412;51.478;5.694;2023-06-22T10:58:39;20.90;99.90
46676;DHT22;32412;51.478;5.694;2023-06-22T11:01:05;20.80;99.90
46676;DHT22;32412;51.478;5.694;2023-06-22T11:03:31;20.60;99.90
46676;DHT22;32412;51.478;5.694;2023-06-22T11:05:56;20.60;99.90
46676;DHT22;32412;51.478;5.694;2023-06-22T11:08:22;20.50;99.90
46676;DHT22;32412;51.478;5.694;2023-06-22T11:10:47;20.30;99.90
46676;DHT22;32412;51.478;5.694;2023-06-22T11:13:13;20.10;99.90
46676;DHT22;32412;51.478;5.694;2023-06-22T11:15:39;20.00;99.90
46676;DHT22;32412;51.478;5.694;2023-06-22T11:18:05;20.00;99.90
46676;DHT22;32412;51.478;5.694;2023-06-22T11:20:33;19.90;99.90
46676;DHT22;32412;51.478;5.694;2023-06-22T11:23:04;19.80;99.90
46676;DHT22;32412;51.478;5.694;2023-06-22T11:25:30;19.60;99.90
46676;DHT22;32412;51.478;5.694;2023-06-22T11:27:56;19.60;99.90
46676;DHT22;32412;51.478;5.694;2023-06-22T11:30:24;19.50;99.90
46676;DHT22;32412;51.478;5.694;2023-06-22T11:32:49;19.40;99.90
46676;DHT22;32412;51.478;5.694;2023-06-22T11:35:15;19.20;99.90
46676;DHT22;32412;51.478;5.694;2023-06-22T11:37:40;19.20;99.90
46676;DHT22;32412;51.478;5.694;2023-06-22T11:40:08;19.10;99.90
46676;DHT22;32412;51.478;5.694;2023-06-22T11:42:34;19.10;99.90
46676;DHT22;32412;51.478;5.694;2023-06-22T11:45:00;19.10;99.90
46676;DHT22;32412;51.478;5.694;2023-06-22T11:47:27;18.90;99.90
46676;DHT22;32412;51.478;5.694;2023-06-22T11:49:52;18.90;99.90
46676;DHT22;32412;51.478;5.694;2023-06-22T11:52:18;18.90;99.90
46676;DHT22;32412;51.478;5.694;2023-06-22T11:54:44;18.90;99.90
46676;DHT22;32412;51.478;5.694;2023-06-22T11:57:11;18.90;99.90
46676;DHT22;32412;51.478;5.694;2023-06-22T11:59:37;18.90;99.90
46676;DHT22;32412;51.478;5.694;2023-06-22T12:02:02;18.90;99.90
46676;DHT22;32412;51.478;5.694;2023-06-22T12:04:29;18.90;99.90
46676;DHT22;32412;51.478;5.694;2023-06-22T12:06:55;18.90;99.90
46676;DHT22;32412;51.478;5.694;2023-06-22T12:09:21;18.90;99.90
46676;DHT22;32412;51.478;5.694;2023-06-22T12:11:46;18.90;99.90
46676;DHT22;32412;51.478;5.694;2023-06-22T12:14:12;18.90;99.90
46676;DHT22;32412;51.478;5.694;2023-06-22T12:16:38;18.90;99.90
46676;DHT22;32412;51.478;5.694;2023-06-22T12:19:04;19.00;99.90
46676;DHT22;32412;51.478;5.694;2023-06-22T12:21:29;18.90;99.90
46676;DHT22;32412;51.478;5.694;2023-06-22T12:23:55;19.00;99.90
46676;DHT22;32412;51.478;5.694;2023-06-22T12:26:21;19.00;99.90
46676;DHT22;32412;51.478;5.694;2023-06-22T12:28:47;19.10;99.90
46676;DHT22;32412;51.478;5.694;2023-06-22T12:31:14;19.10;99.90
46676;DHT22;32412;51.478;5.694;2023-06-22T12:33:39;19.20;99.90
46676;DHT22;32412;51.478;5.694;2023-06-22T12:36:05;19.20;99.90
46676;DHT22;32412;51.478;5.694;2023-06-22T12:38:31;19.30;99.90
46676;DHT22;32412;51.478;5.694;2023-06-22T12:40:57;19.20;99.90
46676;DHT22;32412;51.478;5.694;2023-06-22T12:43:22;19.20;99.90
46676;DHT22;32412;51.478;5.694;2023-06-22T12:45:48;19.30;99.90
46676;DHT22;32412;51.478;5.694;2023-06-22T12:48:13;19.40;99.90
46676;DHT22;32412;51.478;5.694;2023-06-22T12:50:39;19.50;99.90
46676;DHT22;32412;51.478;5.694;2023-06-22T12:53:05;19.60;99.90
46676;DHT22;32412;51.478;5.694;2023-06-22T12:55:31;19.60;99.90
46676;DHT22;32412;51.478;5.694;2023-06-22T12:57:57;19.40;99.90
46676;DHT22;32412;51.478;5.694;2023-06-22T13:00:23;19.50;99.90
46676;DHT22;32412;51.478;5.694;2023-06-22T13:02:49;19.60;99.90
46676;DHT22;32412;51.478;5.694;2023-06-22T13:05:14;19.60;99.90
46676;DHT22;32412;51.478;5.694;2023-06-22T13:07:40;19.70;99.90
46676;DHT22;32412;51.478;5.694;2023-06-22T13:10:08;19.70;99.90
46676;DHT22;32412;51.478;5.694;2023-06-22T13:12:33;19.70;99.90
46676;DHT22;32412;51.478;5.694;2023-06-22T13:14:59;19.60;99.90
46676;DHT22;32412;51.478;5.694;2023-06-22T13:17:25;19.60;99.90
46676;DHT22;32412;51.478;5.694;2023-06-22T13:19:50;19.70;99.90
46676;DHT22;32412;51.478;5.694;2023-06-22T13:22:30;19.60;99.90
46676;DHT22;32412;51.478;5.694;2023-06-22T13:24:57;19.60;99.90
46676;DHT22;32412;51.478;5.694;2023-06-22T13:27:23;19.50;99.90
46676;DHT22;32412;51.478;5.694;2023-06-22T13:29:49;19.60;99.90
46676;DHT22;32412;51.478;5.694;2023-06-22T13:32:15;19.50;99.90
46676;DHT22;32412;51.478;5.694;2023-06-22T13:34:41;19.50;99.90
46676;DHT22;32412;51.478;5.694;2023-06-22T13:37:07;19.50;99.90
46676;DHT22;32412;51.478;5.694;2023-06-22T13:39:33;19.50;99.90
46676;DHT22;32412;51.478;5.694;2023-06-22T13:41:58;19.50;99.90
46676;DHT22;32412;51.478;5.694;2023-06-22T13:44:24;19.40;99.90
46676;DHT22;32412;51.478;5.694;2023-06-22T13:46:56;19.40;99.90
46676;DHT22;32412;51.478;5.694;2023-06-22T13:49:22;19.40;99.90
46676;DHT22;32412;51.478;5.694;2023-06-22T13:51:48;19.40;99.90
46676;DHT22;32412;51.478;5.694;2023-06-22T13:54:14;19.30;99.90
46676;DHT22;32412;51.478;5.694;2023-06-22T13:56:40;19.30;99.90
46676;DHT22;32412;51.478;5.694;2023-06-22T13:59:06;19.20;99.90
46676;DHT22;32412;51.478;5.694;2023-06-22T14:01:35;19.20;99.90
46676;DHT22;32412;51.478;5.694;2023-06-22T14:04:00;19.10;99.90
46676;DHT22;32412;51.478;5.694;2023-06-22T14:06:27;19.10;99.90
46676;DHT22;32412;51.478;5.694;2023-06-22T14:08:53;19.00;99.90
46676;DHT22;32412;51.478;5.694;2023-06-22T14:11:19;19.10;99.90
46676;DHT22;32412;51.478;5.694;2023-06-22T14:13:44;19.00;99.90
46676;DHT22;32412;51.478;5.694;2023-06-22T14:16:10;18.90;99.90
46676;DHT22;32412;51.478;5.694;2023-06-22T14:18:36;18.90;99.90
46676;DHT22;32412;51.478;5.694;2023-06-22T14:21:02;18.80;99.90
46676;DHT22;32412;51.478;5.694;2023-06-22T14:23:27;18.80;99.90
46676;DHT22;32412;51.478;5.694;2023-06-22T14:25:53;18.70;99.90
46676;DHT22;32412;51.478;5.694;2023-06-22T14:28:19;18.70;99.90
46676;DHT22;32412;51.478;5.694;2023-06-22T14:30:45;18.60;99.90
46676;DHT22;32412;51.478;5.694;2023-06-22T14:33:11;18.60;99.90
46676;DHT22;32412;51.478;5.694;2023-06-22T14:35:37;18.50;99.90
46676;DHT22;32412;51.478;5.694;2023-06-22T14:38:03;18.50;99.90
46676;DHT22;32412;51.478;5.694;2023-06-22T14:40:28;18.40;99.90
46676;DHT22;32412;51.478;5.694;2023-06-22T14:42:54;18.30;99.90
46676;DHT22;32412;51.478;5.694;2023-06-22T14:45:22;18.30;99.90
46676;DHT22;32412;51.478;5.694;2023-06-22T14:47:48;18.30;99.90
46676;DHT22;32412;51.478;5.694;2023-06-22T14:50:14;18.20;99.90
46676;DHT22;32412;51.478;5.694;2023-06-22T14:52:39;18.20;99.90
46676;DHT22;32412;51.478;5.694;2023-06-22T14:55:07;18.20;99.90
46676;DHT22;32412;51.478;5.694;2023-06-22T14:57:32;18.10;99.90
46676;DHT22;32412;51.478;5.694;2023-06-22T14:59:58;18.10;99.90
46676;DHT22;32412;51.478;5.694;2023-06-22T15:02:24;18.10;99.90
46676;DHT22;32412;51.478;5.694;2023-06-22T15:04:50;18.00;99.90
46676;DHT22;32412;51.478;5.694;2023-06-22T15:07:17;18.00;99.90
46676;DHT22;32412;51.478;5.694;2023-06-22T15:09:42;18.00;99.90
46676;DHT22;32412;51.478;5.694;2023-06-22T15:12:10;18.00;99.90
46676;DHT22;32412;51.478;5.694;2023-06-22T15:14:40;17.90;99.90
46676;DHT22;32412;51.478;5.694;2023-06-22T15:17:07;18.00;99.90
46676;DHT22;32412;51.478;5.694;2023-06-22T15:19:39;18.00;99.90
46676;DHT22;32412;51.478;5.694;2023-06-22T15:22:06;18.00;99.90
46676;DHT22;32412;51.478;5.694;2023-06-22T15:24:32;18.10;99.90
46676;DHT22;32412;51.478;5.694;2023-06-22T15:26:58;18.10;99.90
46676;DHT22;32412;51.478;5.694;2023-06-22T15:29:24;18.10;99.90
46676;DHT22;32412;51.478;5.694;2023-06-22T15:31:50;18.10;99.90